Northwest Arkansas Regional Airport

Airport
ICAO code: 
KXNA
Summary
ICAO Region: 
NAM
Territory: 
Location: 
Fayetteville, Arkansas,
Coordinates: 
Aerial View: 
36° 16' 53.92" N, 94° 18' 25.142" W
Airport RI: 
Runway Misidentification
Metar
Observation
KXNA 040553Z AUTO 26003KT 10SM OVC023 16/14 A3004 RMK AO2 SLP164 T01560139 10189 20128 402440072 53008
Station
Fayetteville/Springdale, Northwest Arkansas Regional Airport
Date/Time
2021-12-04 05:53:00
Wind direction
260°
Wind speed
03 kts
Lowest cloud amount
overcast
Temperature
15.6°C
Dew point
13.9°C
Humidity
89%
Weather condition
n/a

Description

Regional airport located in Highfill, Arkansas which is 15 nm northwest of the city of Fayetteville and 10 nm northwest of the city of Springdale. The airport also serves the cities of Bentonville, Rogers, and Siloam Springs.

Climatology

Humid “subtropical” climate (Köppen climate classification Cfa) - characterized by hot, humid summers and cool winters. Significant amounts of precipitation occur in all seasons in most areas. Winter rainfall (and sometimes snowfall) is associated with large storms that the westerlies steer from west to east. Most summer rainfall occurs during thunderstorms and occasional tropical storms (hurricanes).

Runways

Designator Length Width Surface Rops
16/34 2682 46 CON Yes/Yes
Airport map: 
Aerial View: 

SKYbrary Partners:

Safety knowledge contributed by: